Time;durP1;ratioP1;P1;durP2;ratioP2;P2;SDS_P1;SDS_P2;PMS_P1;PMS_P2;Temp;Humidity;BMP_temperature;BMP_pressure;BME280_temperature;BME280_humidity;BME280_pressure;Samples;Min_cycle;Max_cycle;Signal;HPM_P1;HPM_P2
2021/01/23 00:00:50;;;;;;;2.30;2.10;;;4.80;99.90;;;;;;4875357;29;20411;-79
2021/01/23 00:03:17;;;;;;;2.28;2.08;;;4.90;99.90;;;;;;4859475;29;20423;-79
2021/01/23 00:05:45;;;;;;;2.03;1.83;;;4.70;99.90;;;;;;4880887;29;20405;-81
2021/01/23 00:08:11;;;;;;;1.70;1.60;;;4.80;99.90;;;;;;4855745;29;20421;-80
2021/01/23 00:11:03;;;;;;;1.97;1.63;;;4.70;99.90;;;;;;4874333;29;20439;-81
2021/01/23 00:13:46;;;;;;;1.80;1.70;;;4.60;99.90;;;;;;4894062;29;20514;-82
2021/01/23 00:16:14;;;;;;;2.13;1.92;;;4.60;99.90;;;;;;4881568;29;20398;-80
2021/01/23 00:22:24;;;;;;;1.70;1.60;;;4.70;99.90;;;;;;4894943;29;20424;-80
2021/01/23 00:24:58;;;;;;;2.08;1.65;;;4.70;99.90;;;;;;4877520;29;20411;-80
2021/01/23 00:27:24;;;;;;;1.50;1.40;;;4.70;99.90;;;;;;4853338;29;20409;-79
2021/01/23 00:29:50;;;;;;;1.55;1.40;;;4.60;99.90;;;;;;4889462;29;20410;-79
2021/01/23 00:32:18;;;;;;;1.63;1.50;;;4.70;99.90;;;;;;4874492;29;20556;-78
2021/01/23 00:34:47;;;;;;;1.70;1.60;;;4.70;99.90;;;;;;4877560;29;20434;-79
2021/01/23 00:37:13;;;;;;;1.40;1.30;;;4.70;99.90;;;;;;4891457;29;20407;-79
2021/01/23 00:39:44;;;;;;;1.40;1.30;;;4.70;99.90;;;;;;4875304;29;20470;-80
2021/01/23 00:42:09;;;;;;;1.38;1.30;;;4.70;99.90;;;;;;4856080;29;20404;-79
2021/01/23 00:44:35;;;;;;;1.38;1.27;;;4.70;99.90;;;;;;4890803;29;20406;-79
2021/01/23 00:47:01;;;;;;;1.90;1.70;;;4.80;99.90;;;;;;4877478;29;20418;-80
2021/01/23 00:49:30;;;;;;;1.60;1.50;;;4.80;99.90;;;;;;4879438;29;20420;-79
2021/01/23 00:51:56;;;;;;;1.70;1.30;;;4.70;99.90;;;;;;4863495;29;20764;-80
2021/01/23 00:54:22;;;;;;;1.58;1.35;;;4.60;99.90;;;;;;4882632;29;20515;-80
2021/01/23 00:56:47;;;;;;;1.43;1.30;;;4.60;99.90;;;;;;4889414;29;20507;-79
2021/01/23 00:59:27;;;;;;;3.30;1.45;;;4.60;99.90;;;;;;4874969;29;20908;-79
2021/01/23 01:02:05;;;;;;;1.58;1.48;;;4.50;99.90;;;;;;4831179;29;20424;-80
2021/01/23 01:04:43;;;;;;;1.35;1.25;;;4.50;99.90;;;;;;4859864;29;20409;-80
2021/01/23 01:07:09;;;;;;;1.70;1.37;;;4.40;99.90;;;;;;4858399;29;20467;-80
2021/01/23 01:09:34;;;;;;;1.40;1.30;;;4.40;99.90;;;;;;4863637;29;20415;-81
2021/01/23 01:12:24;;;;;;;1.38;1.27;;;4.30;99.90;;;;;;4890304;29;20422;-82
2021/01/23 01:14:52;;;;;;;1.60;1.20;;;4.20;99.90;;;;;;4868788;29;20412;-79
2021/01/23 01:17:18;;;;;;;1.10;1.10;;;4.40;99.90;;;;;;4869252;29;20407;-80
2021/01/23 01:19:47;;;;;;;1.35;1.25;;;4.40;99.90;;;;;;4897519;29;20927;-80
2021/01/23 01:22:17;;;;;;;1.00;1.00;;;4.50;99.90;;;;;;4861443;29;20422;-79
2021/01/23 01:24:46;;;;;;;1.27;1.17;;;4.40;99.90;;;;;;4880169;29;20860;-80
2021/01/23 01:27:12;;;;;;;1.50;1.40;;;4.50;99.90;;;;;;4883268;29;20418;-80
2021/01/23 01:35:07;;;;;;;1.30;1.20;;;4.30;99.90;;;;;;4933712;29;20500;-81
2021/01/23 01:39:30;;;;;;;1.40;1.30;;;4.50;99.90;;;;;;4878441;29;20453;-82
2021/01/23 01:42:30;;;;;;;1.30;1.20;;;4.30;99.90;;;;;;4867715;29;20412;-82
2021/01/23 01:45:02;;;;;;;1.15;1.15;;;4.50;99.90;;;;;;4862412;29;20468;-80
2021/01/23 01:47:28;;;;;;;2.10;1.52;;;4.50;99.90;;;;;;4848216;29;20426;-80
2021/01/23 02:07:20;;;;;;;1.42;1.33;;;4.10;99.90;;;;;;4870175;29;20538;-81
2021/01/23 02:10:23;;;;;;;1.40;1.30;;;4.10;99.90;;;;;;4860083;29;20553;-81
2021/01/23 02:13:10;;;;;;;1.60;1.50;;;4.20;99.90;;;;;;4907786;29;20423;-80
2021/01/23 02:15:39;;;;;;;1.35;1.25;;;4.10;99.90;;;;;;4897011;29;20405;-80
2021/01/23 02:18:09;;;;;;;1.27;1.27;;;4.20;99.90;;;;;;4876894;29;20474;-80
2021/01/23 02:20:44;;;;;;;1.40;1.30;;;4.20;99.90;;;;;;4871424;29;20929;-80
2021/01/23 02:23:17;;;;;;;2.00;1.50;;;4.20;99.90;;;;;;4884100;29;20431;-80
2021/01/23 02:26:29;;;;;;;1.48;1.38;;;4.20;99.90;;;;;;4871768;29;20415;-79
2021/01/23 02:29:01;;;;;;;1.80;1.48;;;4.20;99.90;;;;;;4877121;29;20411;-80
2021/01/23 02:31:28;;;;;;;1.38;1.27;;;4.20;99.90;;;;;;4880696;29;20500;-80
2021/01/23 02:33:54;;;;;;;3.42;1.40;;;4.20;99.90;;;;;;4880420;29;20900;-80
2021/01/23 02:36:21;;;;;;;1.50;1.40;;;4.20;99.90;;;;;;4861791;29;20953;-80
2021/01/23 02:38:47;;;;;;;1.27;1.20;;;4.20;99.90;;;;;;4878857;29;20431;-80
2021/01/23 02:41:13;;;;;;;1.50;1.40;;;4.20;99.90;;;;;;4879725;29;20399;-79
2021/01/23 02:43:45;;;;;;;1.50;1.40;;;4.30;99.90;;;;;;4862724;29;20411;-79
2021/01/23 02:46:19;;;;;;;1.40;1.30;;;4.20;99.90;;;;;;4877101;29;20975;-79
2021/01/23 02:48:49;;;;;;;3.65;1.42;;;4.20;99.90;;;;;;4871645;29;20467;-80
2021/01/23 02:51:21;;;;;;;1.33;1.23;;;4.20;99.90;;;;;;4903553;29;20413;-80
2021/01/23 02:53:47;;;;;;;1.67;1.57;;;4.20;99.90;;;;;;4891383;29;20413;-80
2021/01/23 02:56:18;;;;;;;1.75;1.65;;;4.10;99.90;;;;;;4881209;29;20422;-80
2021/01/23 02:58:44;;;;;;;1.93;1.63;;;4.00;99.90;;;;;;4882349;29;20423;-79
2021/01/23 03:01:09;;;;;;;3.80;1.50;;;4.00;99.90;;;;;;4877698;29;20811;-79
2021/01/23 03:03:35;;;;;;;1.52;1.42;;;4.00;99.90;;;;;;4894253;29;20789;-79
2021/01/23 03:06:04;;;;;;;1.50;1.40;;;4.00;99.90;;;;;;4890883;29;20511;-80
2021/01/23 03:08:30;;;;;;;1.58;1.48;;;4.00;99.90;;;;;;4876455;29;20412;-79
2021/01/23 03:10:56;;;;;;;1.73;1.63;;;4.00;99.90;;;;;;4867371;29;20504;-80
2021/01/23 03:13:21;;;;;;;1.75;1.65;;;4.00;99.90;;;;;;4890299;29;20461;-80
2021/01/23 03:15:47;;;;;;;3.13;1.67;;;4.10;99.90;;;;;;4865422;29;20408;-80
2021/01/23 03:18:13;;;;;;;1.50;1.40;;;4.00;99.90;;;;;;4863715;29;20457;-79
2021/01/23 03:20:38;;;;;;;1.83;1.70;;;4.00;99.90;;;;;;4878557;29;20430;-80
2021/01/23 03:23:04;;;;;;;1.70;1.60;;;4.00;99.90;;;;;;4894612;29;20478;-80
2021/01/23 03:25:30;;;;;;;3.35;2.33;;;3.90;99.90;;;;;;4891658;29;20780;-79
2021/01/23 03:27:56;;;;;;;2.78;1.77;;;3.90;99.90;;;;;;4879315;29;20399;-79
2021/01/23 03:30:23;;;;;;;3.13;2.10;;;3.90;99.90;;;;;;4892693;29;20407;-80
2021/01/23 03:32:49;;;;;;;1.93;1.80;;;4.00;99.90;;;;;;4875119;29;20413;-79
2021/01/23 03:35:15;;;;;;;4.57;2.27;;;3.90;99.90;;;;;;4878486;29;20411;-80
2021/01/23 03:37:41;;;;;;;2.60;1.92;;;3.90;99.90;;;;;;4876060;29;20419;-79
2021/01/23 03:40:07;;;;;;;2.10;1.90;;;3.90;99.90;;;;;;4876401;29;20415;-79
2021/01/23 03:42:34;;;;;;;2.55;2.15;;;3.90;99.90;;;;;;4890435;29;20484;-79
2021/01/23 03:44:59;;;;;;;3.08;2.35;;;3.90;99.90;;;;;;4878079;29;20425;-79
2021/01/23 03:47:25;;;;;;;2.10;2.00;;;3.80;99.90;;;;;;4897366;29;20410;-79
2021/01/23 03:49:51;;;;;;;2.40;2.20;;;4.10;99.90;;;;;;4891946;29;20951;-79
2021/01/23 03:52:17;;;;;;;2.63;2.33;;;3.90;99.90;;;;;;4893111;29;20428;-80
2021/01/23 03:54:42;;;;;;;2.42;2.20;;;3.90;99.90;;;;;;4891331;29;20504;-80
2021/01/23 03:57:11;;;;;;;2.70;2.38;;;3.90;99.90;;;;;;4889814;29;20427;-80
2021/01/23 03:59:37;;;;;;;3.17;2.22;;;3.90;99.90;;;;;;4894981;29;20427;-80
2021/01/23 04:02:05;;;;;;;2.88;2.58;;;3.90;99.90;;;;;;4875167;29;20406;-79
2021/01/23 04:04:31;;;;;;;2.93;2.60;;;3.90;99.90;;;;;;4872730;29;20827;-80
2021/01/23 04:09:48;;;;;;;2.40;2.20;;;3.90;99.90;;;;;;4890634;29;20474;-79
2021/01/23 04:12:14;;;;;;;2.43;2.23;;;3.90;99.90;;;;;;4862054;29;20415;-79
2021/01/23 04:14:39;;;;;;;4.82;2.75;;;3.90;99.90;;;;;;4870558;29;20403;-79
2021/01/23 04:17:05;;;;;;;7.27;2.50;;;3.90;99.90;;;;;;4873030;29;20428;-79
2021/01/23 04:19:31;;;;;;;3.50;2.13;;;4.00;99.90;;;;;;4858268;29;20938;-79
2021/01/23 04:21:57;;;;;;;2.60;2.40;;;3.90;99.90;;;;;;4874408;29;20929;-81
2021/01/23 04:24:22;;;;;;;2.97;2.67;;;3.90;99.90;;;;;;4873010;29;20599;-81
2021/01/23 04:26:48;;;;;;;2.47;2.28;;;3.90;99.90;;;;;;4876190;29;20458;-81
2021/01/23 04:29:14;;;;;;;5.90;2.70;;;3.90;99.90;;;;;;4880682;29;20444;-81
2021/01/23 04:31:39;;;;;;;3.73;2.30;;;3.90;99.90;;;;;;4875843;29;20421;-80
2021/01/23 04:34:05;;;;;;;3.75;2.50;;;4.10;99.90;;;;;;4885251;29;20418;-80
2021/01/23 04:36:31;;;;;;;4.13;2.42;;;3.90;99.90;;;;;;4873218;29;20419;-80
2021/01/23 04:39:01;;;;;;;2.25;2.05;;;3.90;99.90;;;;;;4857526;29;20451;-78
2021/01/23 04:41:28;;;;;;;2.90;2.30;;;3.90;99.90;;;;;;4873005;29;20480;-78
2021/01/23 04:43:54;;;;;;;2.70;2.50;;;3.90;99.90;;;;;;4855904;29;20745;-78
2021/01/23 04:46:20;;;;;;;3.17;2.45;;;3.90;99.90;;;;;;4857497;29;20922;-78
2021/01/23 04:48:46;;;;;;;2.60;2.30;;;3.90;99.90;;;;;;4857937;29;20419;-78
2021/01/23 04:51:11;;;;;;;2.72;2.22;;;3.90;99.90;;;;;;4874241;29;20811;-79
2021/01/23 04:53:37;;;;;;;2.72;2.20;;;3.90;99.90;;;;;;4859701;29;20962;-81
2021/01/23 04:56:04;;;;;;;2.50;2.30;;;3.90;99.90;;;;;;4859857;29;20552;-80
2021/01/23 04:58:31;;;;;;;2.80;2.35;;;3.90;99.90;;;;;;4860218;29;20428;-81
2021/01/23 05:00:56;;;;;;;4.43;2.42;;;3.90;99.90;;;;;;4850126;29;20404;-81
2021/01/23 05:03:22;;;;;;;2.28;2.08;;;3.90;99.90;;;;;;4876017;29;20403;-78
2021/01/23 05:06:04;;;;;;;3.87;2.40;;;4.00;99.90;;;;;;4884800;29;20414;-78
2021/01/23 05:08:37;;;;;;;2.50;2.17;;;3.90;99.90;;;;;;4872638;29;20426;-79
2021/01/23 05:11:03;;;;;;;3.20;2.05;;;3.90;99.90;;;;;;4842886;29;20432;-81
2021/01/23 05:13:29;;;;;;;2.80;2.08;;;3.90;99.90;;;;;;4861066;29;20407;-82
2021/01/23 05:15:55;;;;;;;2.45;2.25;;;3.90;99.90;;;;;;4863390;29;20425;-82
2021/01/23 05:18:20;;;;;;;2.30;2.10;;;3.90;99.90;;;;;;4855236;29;20396;-82
2021/01/23 05:20:52;;;;;;;2.63;1.90;;;3.80;99.90;;;;;;4859810;29;20404;-82
2021/01/23 05:23:22;;;;;;;2.35;2.15;;;3.90;99.90;;;;;;4874532;29;20409;-79
2021/01/23 05:25:51;;;;;;;2.35;2.15;;;3.80;99.90;;;;;;4859037;29;20404;-80
2021/01/23 05:28:33;;;;;;;2.30;2.10;;;3.80;99.90;;;;;;4858669;29;20424;-80
2021/01/23 05:30:59;;;;;;;2.03;1.90;;;3.70;99.90;;;;;;4858165;29;20407;-80
2021/01/23 05:33:32;;;;;;;3.17;2.00;;;3.70;99.90;;;;;;4858339;29;20886;-80
2021/01/23 05:36:08;;;;;;;2.00;1.80;;;3.80;99.90;;;;;;4857870;29;20411;-79
2021/01/23 05:38:38;;;;;;;2.13;1.93;;;3.80;99.90;;;;;;4859280;29;20417;-82
2021/01/23 05:41:03;;;;;;;1.88;1.77;;;3.80;99.90;;;;;;4873771;29;20421;-82
2021/01/23 05:43:36;;;;;;;2.47;2.17;;;3.80;99.90;;;;;;4875640;29;20415;-82
2021/01/23 05:46:07;;;;;;;2.08;1.88;;;3.80;99.90;;;;;;4874697;29;20419;-81
2021/01/23 05:48:38;;;;;;;2.40;1.73;;;3.80;99.90;;;;;;4857906;29;20766;-81
2021/01/23 05:51:04;;;;;;;2.28;2.08;;;3.90;99.90;;;;;;4857794;29;20488;-79
2021/01/23 05:53:30;;;;;;;2.20;1.70;;;3.80;99.90;;;;;;4862699;29;20874;-82
2021/01/23 05:55:59;;;;;;;2.20;2.00;;;3.90;99.90;;;;;;4870643;29;20415;-82
2021/01/23 05:58:25;;;;;;;2.33;2.13;;;3.80;99.90;;;;;;4877018;29;20420;-82
2021/01/23 06:00:52;;;;;;;2.78;2.22;;;3.80;99.90;;;;;;4875420;29;20408;-81
2021/01/23 06:03:18;;;;;;;2.10;1.92;;;3.80;99.90;;;;;;4884456;23;20442;-82
2021/01/23 06:05:44;;;;;;;2.20;2.00;;;3.70;99.90;;;;;;4887233;29;20911;-81
2021/01/23 06:08:11;;;;;;;2.35;2.15;;;3.90;99.90;;;;;;4880714;29;20856;-79
2021/01/23 06:10:38;;;;;;;4.35;2.40;;;3.70;99.90;;;;;;4896632;29;20407;-80
2021/01/23 06:13:04;;;;;;;2.58;2.38;;;3.70;99.90;;;;;;4869795;29;20435;-80
2021/01/23 06:15:40;;;;;;;2.92;2.47;;;3.90;99.90;;;;;;4860871;29;20468;-80
2021/01/23 06:18:21;;;;;;;3.93;2.63;;;3.80;99.90;;;;;;4866869;29;20519;-80
2021/01/23 06:20:48;;;;;;;3.58;2.85;;;3.80;99.90;;;;;;4886868;29;20463;-80
2021/01/23 06:23:19;;;;;;;4.15;2.60;;;3.80;99.90;;;;;;4849126;29;20409;-80
2021/01/23 06:25:51;;;;;;;4.20;2.85;;;3.80;99.90;;;;;;4880407;29;21861;-80
2021/01/23 06:28:18;;;;;;;3.30;2.88;;;3.70;99.90;;;;;;4895845;29;20920;-83
2021/01/23 06:30:44;;;;;;;3.00;2.60;;;3.90;99.90;;;;;;4878482;29;20482;-80
2021/01/23 06:33:22;;;;;;;3.53;3.20;;;3.70;99.90;;;;;;4849394;29;20406;-81
2021/01/23 06:36:06;;;;;;;3.55;3.05;;;3.70;99.90;;;;;;4878110;29;20925;-81
2021/01/23 06:38:35;;;;;;;3.47;2.90;;;3.70;99.90;;;;;;4895834;29;20494;-80
2021/01/23 06:41:25;;;;;;;4.03;2.92;;;3.80;99.90;;;;;;4866443;29;20463;-79
2021/01/23 06:44:09;;;;;;;3.87;3.20;;;3.70;99.90;;;;;;4855842;29;20453;-79
2021/01/23 06:46:37;;;;;;;5.78;3.47;;;3.70;99.90;;;;;;4860796;29;20472;-79
2021/01/23 06:49:10;;;;;;;3.35;3.05;;;3.70;99.90;;;;;;4879266;29;20418;-79
2021/01/23 06:52:06;;;;;;;4.65;3.13;;;3.60;99.90;;;;;;4896536;29;20415;-80
2021/01/23 06:57:45;;;;;;;6.28;3.28;;;3.60;99.90;;;;;;4891754;29;20417;-78
2021/01/23 07:00:13;;;;;;;4.13;3.72;;;3.70;99.90;;;;;;4876050;29;20440;-80
2021/01/23 07:02:39;;;;;;;5.88;3.70;;;3.60;99.90;;;;;;4837083;29;20474;-80
2021/01/23 07:05:31;;;;;;;3.90;3.50;;;3.70;99.90;;;;;;4885954;29;20415;-80
2021/01/23 07:07:56;;;;;;;6.65;3.40;;;3.60;99.90;;;;;;4880190;29;20416;-79
2021/01/23 07:10:22;;;;;;;4.38;3.40;;;3.80;99.90;;;;;;4879562;29;20419;-78
2021/01/23 07:12:48;;;;;;;4.60;3.40;;;3.60;99.90;;;;;;4855118;29;20481;-79
2021/01/23 07:15:38;;;;;;;4.03;3.33;;;3.50;99.90;;;;;;4872083;29;20407;-79
2021/01/23 07:18:13;;;;;;;3.65;3.13;;;3.40;99.90;;;;;;4883700;29;20403;-81
2021/01/23 07:20:38;;;;;;;4.90;4.03;;;3.60;99.90;;;;;;4879436;29;20415;-81
2021/01/23 07:23:10;;;;;;;3.97;3.42;;;3.60;99.90;;;;;;4873732;29;20402;-81
2021/01/23 07:25:36;;;;;;;4.15;3.50;;;3.50;99.90;;;;;;4866438;29;20415;-81
2021/01/23 07:28:10;;;;;;;4.03;3.67;;;3.50;99.90;;;;;;4853693;29;20437;-81
2021/01/23 07:30:36;;;;;;;4.07;3.42;;;3.50;99.90;;;;;;4889381;29;20761;-81
2021/01/23 07:33:01;;;;;;;3.85;3.45;;;3.50;99.90;;;;;;4876641;29;20418;-82
2021/01/23 07:35:35;;;;;;;3.92;3.53;;;3.50;99.90;;;;;;4893647;29;20418;-81
2021/01/23 07:38:37;;;;;;;3.90;3.30;;;3.50;99.90;;;;;;4859901;29;20391;-82
2021/01/23 07:42:00;;;;;;;5.85;3.30;;;3.50;99.90;;;;;;4916746;29;20908;-81
2021/01/23 07:45:10;;;;;;;5.28;3.15;;;3.60;99.90;;;;;;4975942;23;20421;-80
2021/01/23 07:47:37;;;;;;;4.70;3.55;;;3.50;99.90;;;;;;4845177;29;20408;-80
2021/01/23 07:50:13;;;;;;;6.32;4.50;;;3.50;99.90;;;;;;4861995;29;20405;-83
2021/01/23 08:07:29;;;;;;;12.07;6.80;;;3.50;99.90;;;;;;5302819;23;20450;-80
2021/01/23 08:16:20;;;;;;;5.22;4.05;;;3.50;99.90;;;;;;5030833;23;20427;-82
2021/01/23 08:18:46;;;;;;;5.75;3.88;;;3.50;99.90;;;;;;4849572;29;20476;-83
2021/01/23 08:21:42;;;;;;;4.22;3.47;;;3.60;99.90;;;;;;4874705;29;20505;-81
2021/01/23 08:24:27;;;;;;;4.10;3.60;;;3.30;99.90;;;;;;4858167;29;20854;-80
2021/01/23 08:26:53;;;;;;;5.15;3.53;;;3.30;99.90;;;;;;4849591;29;20922;-81
2021/01/23 08:29:19;;;;;;;4.13;3.72;;;3.30;99.90;;;;;;4858218;29;20480;-80
2021/01/23 08:32:04;;;;;;;5.40;3.80;;;3.30;99.90;;;;;;4827332;29;20472;-80
2021/01/23 08:34:31;;;;;;;4.90;3.17;;;3.20;99.90;;;;;;4859867;29;20508;-80
2021/01/23 08:36:57;;;;;;;4.43;3.53;;;3.20;99.90;;;;;;4842011;29;20464;-81
2021/01/23 08:39:23;;;;;;;5.03;4.07;;;3.30;99.90;;;;;;4873121;29;20436;-80
2021/01/23 08:41:49;;;;;;;4.33;3.83;;;3.20;99.90;;;;;;4841848;29;20420;-80
2021/01/23 08:44:15;;;;;;;5.38;4.53;;;3.10;99.90;;;;;;4836449;29;20515;-79
2021/01/23 08:46:40;;;;;;;6.50;4.90;;;3.10;99.90;;;;;;4855604;29;20948;-79
2021/01/23 08:49:06;;;;;;;5.72;4.53;;;3.00;99.90;;;;;;4842823;29;20409;-80
2021/01/23 08:51:33;;;;;;;6.13;4.80;;;2.90;99.90;;;;;;4858696;29;20420;-80
2021/01/23 08:53:59;;;;;;;5.13;4.53;;;2.80;99.90;;;;;;4851428;29;20443;-80
2021/01/23 08:56:25;;;;;;;6.10;4.82;;;2.80;99.90;;;;;;4824607;29;20426;-79
2021/01/23 08:58:50;;;;;;;6.05;4.68;;;2.80;99.90;;;;;;4842502;29;20413;-80
2021/01/23 09:01:16;;;;;;;5.20;4.70;;;2.80;99.90;;;;;;4840756;29;20409;-78
2021/01/23 09:03:42;;;;;;;6.03;4.77;;;2.80;99.90;;;;;;4869858;29;20414;-76
2021/01/23 09:06:07;;;;;;;6.72;5.75;;;2.80;99.90;;;;;;4846751;29;20425;-77
2021/01/23 09:08:33;;;;;;;5.63;4.55;;;2.70;99.90;;;;;;4827647;29;20417;-76
2021/01/23 09:10:59;;;;;;;6.03;4.30;;;2.70;99.90;;;;;;4838947;29;20492;-76
2021/01/23 09:13:24;;;;;;;6.07;4.47;;;2.60;99.90;;;;;;4856996;29;20496;-77
2021/01/23 09:15:50;;;;;;;4.75;4.03;;;2.60;99.90;;;;;;4845743;29;20412;-78
2021/01/23 09:18:16;;;;;;;8.93;4.50;;;2.50;99.90;;;;;;4853321;29;20482;-78
2021/01/23 09:20:42;;;;;;;5.18;4.32;;;2.50;99.90;;;;;;4853708;29;20559;-80
2021/01/23 09:23:07;;;;;;;4.53;3.97;;;2.40;99.90;;;;;;4860829;29;20462;-78
2021/01/23 09:25:33;;;;;;;3.33;3.13;;;2.30;99.90;;;;;;4838422;29;21056;-78
2021/01/23 09:27:59;;;;;;;6.10;3.40;;;2.30;99.90;;;;;;4873095;29;20924;-79
2021/01/23 09:30:27;;;;;;;3.55;2.95;;;2.20;99.90;;;;;;4852919;29;20406;-79
2021/01/23 09:32:52;;;;;;;5.97;3.15;;;2.20;99.90;;;;;;4867833;29;20395;-81
2021/01/23 09:35:18;;;;;;;5.18;3.15;;;2.20;99.90;;;;;;4875834;29;25107;-80
2021/01/23 09:37:44;;;;;;;3.35;2.70;;;2.20;99.90;;;;;;4860611;29;20775;-80
2021/01/23 09:40:10;;;;;;;5.47;3.37;;;2.30;99.90;;;;;;4872770;29;20430;-79
2021/01/23 09:42:36;;;;;;;5.93;2.80;;;2.30;99.90;;;;;;4861000;29;20410;-81
2021/01/23 09:45:02;;;;;;;3.70;2.90;;;2.20;99.90;;;;;;4814816;29;20406;-78
2021/01/23 09:47:28;;;;;;;3.50;3.03;;;2.20;99.90;;;;;;4844851;29;20767;-80
2021/01/23 09:49:53;;;;;;;2.78;2.47;;;2.20;99.90;;;;;;4820446;29;20410;-80
2021/01/23 09:52:19;;;;;;;3.35;2.40;;;2.20;99.90;;;;;;4830749;29;20404;-80
2021/01/23 09:54:45;;;;;;;3.57;2.60;;;2.20;99.90;;;;;;4851748;29;20414;-79
2021/01/23 09:57:10;;;;;;;6.95;2.67;;;2.20;99.90;;;;;;4825037;29;20428;-78
2021/01/23 09:59:38;;;;;;;3.65;2.50;;;2.20;99.90;;;;;;4825679;29;20424;-78
2021/01/23 10:02:03;;;;;;;2.17;1.98;;;2.20;99.90;;;;;;4853578;29;20414;-78
2021/01/23 10:04:29;;;;;;;4.67;2.60;;;2.30;99.90;;;;;;4851243;29;20423;-78
2021/01/23 10:06:55;;;;;;;3.30;2.40;;;2.20;99.90;;;;;;4853153;29;20435;-79
2021/01/23 10:09:21;;;;;;;3.53;2.60;;;2.20;99.90;;;;;;4836623;29;20414;-78
2021/01/23 10:11:48;;;;;;;3.17;2.80;;;2.10;99.90;;;;;;4838905;29;20459;-78
2021/01/23 10:14:13;;;;;;;3.30;3.00;;;2.10;99.90;;;;;;4859865;29;20421;-78
2021/01/23 10:16:39;;;;;;;3.17;2.47;;;2.10;99.90;;;;;;4831922;29;20445;-77
2021/01/23 10:19:05;;;;;;;5.53;3.07;;;2.20;99.90;;;;;;4814433;29;20991;-78
2021/01/23 10:21:31;;;;;;;3.90;2.83;;;2.20;99.90;;;;;;4853660;29;20540;-78
2021/01/23 10:23:58;;;;;;;3.10;2.80;;;2.10;99.90;;;;;;4854102;29;20421;-78
2021/01/23 10:26:25;;;;;;;2.97;2.67;;;2.20;99.90;;;;;;4838996;29;20413;-79
2021/01/23 10:28:51;;;;;;;3.20;2.90;;;2.10;99.90;;;;;;4825701;29;20403;-82
2021/01/23 10:31:16;;;;;;;3.53;2.60;;;2.20;99.90;;;;;;4853682;29;20415;-77
2021/01/23 10:33:42;;;;;;;4.20;2.78;;;2.20;99.90;;;;;;4874124;29;20434;-78
2021/01/23 10:36:08;;;;;;;3.47;2.47;;;2.20;99.90;;;;;;4821288;29;20513;-78
2021/01/23 10:38:33;;;;;;;2.60;2.40;;;2.20;99.90;;;;;;4849937;29;20421;-78
2021/01/23 10:40:59;;;;;;;4.88;2.50;;;2.20;99.90;;;;;;4850785;29;20414;-77
2021/01/23 10:43:25;;;;;;;3.75;2.25;;;2.30;99.90;;;;;;4856524;29;20409;-77
2021/01/23 10:45:50;;;;;;;3.13;2.10;;;2.30;99.90;;;;;;4853740;29;20404;-77
2021/01/23 10:48:16;;;;;;;2.63;2.10;;;2.40;99.90;;;;;;4857944;29;20894;-77
2021/01/23 10:50:43;;;;;;;3.05;2.30;;;2.20;99.90;;;;;;4859199;29;21124;-77
2021/01/23 10:53:08;;;;;;;2.63;1.90;;;2.40;99.90;;;;;;4848547;29;20414;-77
2021/01/23 10:55:34;;;;;;;1.92;1.83;;;2.20;99.90;;;;;;4861099;29;20418;-77
2021/01/23 10:58:00;;;;;;;3.63;2.00;;;2.20;99.90;;;;;;4856075;29;20417;-78
2021/01/23 11:00:26;;;;;;;2.53;2.00;;;2.10;99.90;;;;;;4855888;29;20462;-78
2021/01/23 11:02:51;;;;;;;1.90;1.80;;;2.10;99.90;;;;;;4852985;29;20436;-78
2021/01/23 11:05:17;;;;;;;1.80;1.70;;;2.10;99.90;;;;;;4852014;29;20503;-77
2021/01/23 11:07:43;;;;;;;2.80;1.73;;;2.10;99.90;;;;;;4857049;29;20400;-77
2021/01/23 11:10:09;;;;;;;1.63;1.52;;;2.00;99.90;;;;;;4842703;29;20553;-78
2021/01/23 11:12:35;;;;;;;1.65;1.55;;;2.00;99.90;;;;;;4849913;29;20411;-77
2021/01/23 11:15:00;;;;;;;1.40;1.30;;;2.00;99.90;;;;;;4848442;29;20918;-80
2021/01/23 11:17:26;;;;;;;1.50;1.40;;;2.00;99.90;;;;;;4841973;29;20444;-78
2021/01/23 11:19:52;;;;;;;1.60;1.35;;;2.00;99.90;;;;;;4858170;29;20420;-78
2021/01/23 11:22:18;;;;;;;2.43;1.20;;;1.90;99.90;;;;;;4843502;29;20933;-77
2021/01/23 11:24:43;;;;;;;1.00;1.00;;;1.80;99.90;;;;;;4860850;29;20412;-78
2021/01/23 11:27:09;;;;;;;0.95;0.95;;;1.80;99.90;;;;;;4842454;29;20425;-78
2021/01/23 11:29:35;;;;;;;0.73;0.73;;;1.80;99.90;;;;;;4845485;29;20400;-78
2021/01/23 11:32:01;;;;;;;0.70;0.70;;;1.70;99.90;;;;;;4850079;29;20487;-81
2021/01/23 11:34:27;;;;;;;0.75;0.75;;;1.50;99.90;;;;;;4837263;29;20495;-77
2021/01/23 11:36:53;;;;;;;0.65;0.65;;;1.40;99.90;;;;;;4871984;29;20410;-79
2021/01/23 11:39:19;;;;;;;0.55;0.55;;;1.40;99.90;;;;;;4857085;29;20432;-79
2021/01/23 11:41:45;;;;;;;0.70;0.70;;;1.40;99.90;;;;;;4840956;29;20422;-79
2021/01/23 11:44:11;;;;;;;0.70;0.70;;;1.50;99.90;;;;;;4849335;29;20786;-82
2021/01/23 11:46:36;;;;;;;0.80;0.80;;;1.40;99.90;;;;;;4868627;29;20416;-82
2021/01/23 11:49:02;;;;;;;0.80;0.80;;;1.50;99.90;;;;;;4870678;29;20407;-80
2021/01/23 11:51:28;;;;;;;0.75;0.75;;;1.50;99.90;;;;;;4845189;29;20914;-79
2021/01/23 11:53:54;;;;;;;0.80;0.80;;;1.50;99.90;;;;;;4889849;29;20519;-79
2021/01/23 11:56:20;;;;;;;1.17;1.08;;;1.50;99.90;;;;;;4845867;29;20412;-80
2021/01/23 11:58:45;;;;;;;1.13;1.03;;;1.50;99.90;;;;;;4865082;29;20429;-84
2021/01/23 12:01:11;;;;;;;1.10;1.10;;;1.40;99.90;;;;;;4873861;29;20499;-79
2021/01/23 12:03:37;;;;;;;2.05;1.85;;;1.30;99.90;;;;;;4843773;29;20484;-82
2021/01/23 12:06:03;;;;;;;1.73;1.63;;;1.20;99.90;;;;;;4850674;29;20425;-81
2021/01/23 12:08:29;;;;;;;2.17;1.98;;;1.30;99.90;;;;;;4851965;29;20413;-82
2021/01/23 12:10:54;;;;;;;2.20;1.63;;;1.30;99.90;;;;;;4862114;29;20392;-79
2021/01/23 12:13:20;;;;;;;1.93;1.83;;;1.30;99.90;;;;;;4877593;29;20408;-80
2021/01/23 12:15:46;;;;;;;2.40;2.20;;;1.30;99.90;;;;;;4830591;29;20408;-78
2021/01/23 12:18:12;;;;;;;2.13;1.90;;;1.20;99.90;;;;;;4877470;29;20421;-81
2021/01/23 12:20:38;;;;;;;1.98;1.65;;;1.20;99.90;;;;;;4863433;29;20432;-83
2021/01/23 12:23:03;;;;;;;1.55;1.45;;;1.20;99.90;;;;;;4831312;29;20775;-78
2021/01/23 12:25:29;;;;;;;1.63;1.53;;;1.20;99.90;;;;;;4831206;29;20490;-85
2021/01/23 12:27:55;;;;;;;1.20;1.20;;;1.20;99.90;;;;;;4855649;29;20529;-84
2021/01/23 12:30:21;;;;;;;1.42;1.38;;;1.20;99.90;;;;;;4818712;29;20422;-79
2021/01/23 12:32:47;;;;;;;1.50;1.40;;;1.10;99.90;;;;;;4866886;29;20460;-84
2021/01/23 12:35:13;;;;;;;1.40;1.30;;;1.20;99.90;;;;;;4847779;29;20413;-79
2021/01/23 12:37:39;;;;;;;1.50;1.40;;;1.10;99.90;;;;;;4866358;29;20409;-80
2021/01/23 12:40:05;;;;;;;1.70;1.60;;;1.10;99.90;;;;;;4880763;29;20419;-79
2021/01/23 12:42:31;;;;;;;1.25;1.20;;;1.10;99.90;;;;;;4872331;29;20480;-84
2021/01/23 12:44:57;;;;;;;1.45;1.35;;;1.00;99.90;;;;;;4873438;29;20414;-88
2021/01/23 12:47:23;;;;;;;1.40;1.30;;;1.00;99.90;;;;;;4850565;29;20638;-84
2021/01/23 12:49:49;;;;;;;1.50;1.40;;;1.00;99.90;;;;;;4867423;29;20402;-88
2021/01/23 12:52:15;;;;;;;1.70;1.60;;;1.20;99.90;;;;;;4867399;29;20877;-79
2021/01/23 12:54:41;;;;;;;1.80;1.70;;;1.10;99.90;;;;;;4863569;29;20432;-82
2021/01/23 12:57:07;;;;;;;2.08;1.98;;;1.10;99.90;;;;;;4857492;29;21331;-78
2021/01/23 12:59:36;;;;;;;1.70;1.60;;;1.10;99.90;;;;;;4827359;29;20418;-81
2021/01/23 13:02:02;;;;;;;1.73;1.63;;;1.10;99.90;;;;;;4872459;29;20449;-80
2021/01/23 13:04:27;;;;;;;1.95;1.85;;;1.10;99.90;;;;;;4827383;29;20465;-79
2021/01/23 13:06:53;;;;;;;1.90;1.80;;;1.10;99.90;;;;;;4884386;29;20397;-89
2021/01/23 13:09:19;;;;;;;2.17;2.00;;;1.20;99.90;;;;;;4855957;29;20456;-87
2021/01/23 13:11:44;;;;;;;1.80;1.70;;;1.10;99.90;;;;;;4851594;29;20426;-83
2021/01/23 13:14:10;;;;;;;2.30;2.10;;;1.10;99.90;;;;;;4870609;29;20668;-82
2021/01/23 13:16:36;;;;;;;2.22;2.03;;;1.20;99.90;;;;;;4867429;29;20420;-83
2021/01/23 13:19:04;;;;;;;2.13;1.97;;;1.10;99.90;;;;;;4849149;29;20787;-81
2021/01/23 13:21:30;;;;;;;1.80;1.70;;;1.10;99.90;;;;;;4861120;29;20403;-79
2021/01/23 13:23:56;;;;;;;2.30;2.10;;;1.10;99.90;;;;;;4835454;29;20406;-80
2021/01/23 13:26:22;;;;;;;2.10;2.00;;;1.10;99.90;;;;;;4860548;29;21113;-81
2021/01/23 13:28:47;;;;;;;2.13;1.95;;;1.10;99.90;;;;;;4838096;29;20828;-79
2021/01/23 13:31:13;;;;;;;2.50;2.30;;;1.00;99.90;;;;;;4852946;29;20481;-81
2021/01/23 13:33:39;;;;;;;3.42;3.13;;;1.00;99.90;;;;;;4857101;29;20407;-81
2021/01/23 13:36:04;;;;;;;2.30;2.10;;;1.00;99.90;;;;;;4856623;29;20408;-81
2021/01/23 13:38:30;;;;;;;2.33;2.15;;;1.00;99.90;;;;;;4859319;29;20477;-80
2021/01/23 13:40:56;;;;;;;2.17;2.03;;;1.00;99.90;;;;;;4853189;29;20410;-81
2021/01/23 13:43:22;;;;;;;2.00;1.90;;;1.10;99.90;;;;;;4841929;29;20426;-83
2021/01/23 13:45:47;;;;;;;2.65;2.42;;;1.00;99.90;;;;;;4847430;29;20416;-87
2021/01/23 13:48:13;;;;;;;2.47;2.30;;;1.00;99.90;;;;;;4875226;29;20457;-87
2021/01/23 13:50:39;;;;;;;2.83;2.63;;;1.00;99.90;;;;;;4875357;29;20400;-82
2021/01/23 13:53:05;;;;;;;2.50;2.30;;;1.00;99.90;;;;;;4849997;29;20531;-85
2021/01/23 13:55:31;;;;;;;2.20;2.00;;;1.00;99.90;;;;;;4850821;29;20898;-85
2021/01/23 13:57:57;;;;;;;2.27;2.10;;;1.00;99.90;;;;;;4860197;29;20413;-85
2021/01/23 14:00:25;;;;;;;3.30;2.40;;;1.00;99.90;;;;;;4859354;29;20428;-82